createdAt,value
2023-04-25T00:01:49.866Z,99755.00
2023-04-25T00:04:18.677Z,99755.13
2023-04-25T00:06:47.622Z,99756.19
2023-04-25T00:09:16.428Z,99750.19
2023-04-25T00:11:46.483Z,99761.59
2023-04-25T00:14:15.273Z,99755.44
2023-04-25T00:16:45.199Z,99753.72
2023-04-25T00:19:14.723Z,99750.94
2023-04-25T00:21:43.853Z,99745.63
2023-04-25T00:24:12.588Z,99740.34
2023-04-25T00:26:41.420Z,99750.00
2023-04-25T00:29:11.518Z,99752.66
2023-04-25T00:31:40.884Z,99756.19
2023-04-25T00:34:10.088Z,99748.28
2023-04-25T00:36:39.120Z,99754.59
2023-04-25T00:39:08.011Z,99759.97
2023-04-25T00:41:36.753Z,99699.38
2023-04-25T00:44:08.058Z,99748.88
2023-04-25T00:46:38.736Z,99753.41
2023-04-25T00:49:07.826Z,99755.25
2023-04-25T00:51:37.354Z,99759.66
2023-04-25T00:54:06.230Z,99760.53
2023-04-25T00:56:35.025Z,99757.16
2023-04-25T00:59:03.909Z,99749.44
2023-04-25T01:01:33.271Z,99752.19
2023-04-25T01:04:04.261Z,99754.88
2023-04-25T01:06:33.772Z,99761.00
2023-04-25T01:09:03.781Z,99756.81
2023-04-25T01:11:32.475Z,99756.03
2023-04-25T01:14:01.544Z,99751.69
2023-04-25T01:16:30.655Z,99754.44
2023-04-25T01:18:59.705Z,99747.50
2023-04-25T01:21:30.851Z,99751.19
2023-04-25T01:24:00.098Z,99744.25
2023-04-25T01:26:29.426Z,99743.38
2023-04-25T01:28:58.847Z,99748.56
2023-04-25T01:31:28.436Z,99756.50
2023-04-25T01:33:57.218Z,99750.47
2023-04-25T01:36:26.275Z,99752.31
2023-04-25T01:38:56.724Z,99754.13
2023-04-25T01:41:25.911Z,99759.31
2023-04-25T01:43:54.694Z,99754.88
2023-04-25T01:46:23.515Z,99759.19
2023-04-25T01:48:52.287Z,99761.81
2023-04-25T01:51:21.127Z,99757.59
2023-04-25T01:53:50.308Z,99759.34
2023-04-25T01:56:21.732Z,99755.94
2023-04-25T01:58:50.672Z,99759.53
2023-04-25T02:01:22.362Z,99758.69
2023-04-25T02:04:07.807Z,99762.19
2023-04-25T02:06:39.158Z,99760.44
2023-04-25T02:09:09.363Z,99760.38
2023-04-25T02:11:46.008Z,99750.66
2023-04-25T02:14:29.809Z,99749.59
2023-04-25T02:17:06.679Z,99759.06
2023-04-25T02:19:35.706Z,99756.22
2023-04-25T02:22:04.678Z,99752.53
2023-04-25T02:24:34.692Z,99757.59
2023-04-25T02:27:05.267Z,99760.81
2023-04-25T02:29:34.066Z,99758.91
2023-04-25T02:32:03.143Z,99760.53
2023-04-25T02:34:31.931Z,99752.50
2023-04-25T02:37:03.397Z,99752.47
2023-04-25T02:39:32.230Z,99757.78
2023-04-25T02:42:01.996Z,99759.69
2023-04-25T02:44:33.582Z,99760.81
2023-04-25T02:47:02.322Z,99759.19
2023-04-25T02:49:31.082Z,99752.19
2023-04-25T02:51:59.943Z,99755.63
2023-04-25T02:54:28.690Z,99752.06
2023-04-25T02:56:58.498Z,99740.66
2023-04-25T02:59:33.120Z,99745.03
2023-04-25T03:02:02.131Z,99740.66
2023-04-25T03:04:31.139Z,99742.44
2023-04-25T03:06:59.903Z,99737.19
2023-04-25T03:09:28.709Z,99744.16
2023-04-25T03:11:57.477Z,99748.31
2023-04-25T03:14:26.282Z,99745.63
2023-04-25T03:16:56.701Z,99742.06
2023-04-25T03:19:25.576Z,99742.84
2023-04-25T03:21:54.820Z,99742.75
2023-04-25T03:24:23.837Z,99739.19
2023-04-25T03:26:52.605Z,99743.53
2023-04-25T03:29:27.415Z,99752.28
2023-04-25T03:31:58.944Z,99747.06
2023-04-25T03:34:28.329Z,99747.16
2023-04-25T03:36:57.498Z,99739.34
2023-04-25T03:39:26.350Z,99749.06
2023-04-25T03:41:56.022Z,99743.97
2023-04-25T03:44:26.895Z,99743.38
2023-04-25T03:46:57.151Z,99745.38
2023-04-25T03:49:27.084Z,99749.97
2023-04-25T03:52:01.331Z,99750.16
2023-04-25T03:54:33.202Z,99747.72
2023-04-25T03:57:07.732Z,99741.66
2023-04-25T03:59:40.672Z,99742.56
2023-04-25T04:02:13.538Z,99746.97
2023-04-25T04:04:45.138Z,99741.72
2023-04-25T04:07:14.709Z,99740.94
2023-04-25T04:09:46.241Z,99744.50
2023-04-25T04:12:20.891Z,99740.13
2023-04-25T04:14:49.679Z,99741.88
2023-04-25T04:17:19.836Z,99744.50
2023-04-25T04:19:48.629Z,99748.84
2023-04-25T04:22:20.935Z,99752.31
2023-04-25T04:24:51.445Z,99750.50
2023-04-25T04:27:26.032Z,99755.69
2023-04-25T04:30:10.608Z,99752.97
2023-04-25T04:32:56.849Z,99755.47
2023-04-25T04:35:25.994Z,99765.91
2023-04-25T04:37:55.605Z,99756.19
2023-04-25T04:40:31.484Z,99760.47
2023-04-25T04:43:23.916Z,99762.06
2023-04-25T04:46:05.912Z,99756.47
2023-04-25T04:48:36.470Z,99756.41
2023-04-25T04:51:25.504Z,99752.72
2023-04-25T04:53:59.390Z,99758.63
2023-04-25T04:56:52.155Z,99760.22
2023-04-25T04:59:30.708Z,99760.00
2023-04-25T05:02:11.165Z,99766.84
2023-04-25T05:04:53.778Z,99768.25
2023-04-25T05:07:41.398Z,99767.16
2023-04-25T05:10:28.866Z,99771.19
2023-04-25T05:13:16.666Z,99766.47
2023-04-25T05:16:07.318Z,99771.53
2023-04-25T05:19:11.810Z,99770.38
2023-04-25T05:21:55.481Z,99773.59
2023-04-25T05:24:33.540Z,99782.19
2023-04-25T05:27:18.465Z,99777.72
2023-04-25T05:30:09.020Z,99782.06
2023-04-25T05:32:56.871Z,99791.69
2023-04-25T05:35:25.879Z,99785.47
2023-04-25T05:37:56.294Z,99776.47
2023-04-25T05:40:37.429Z,99778.88
2023-04-25T05:43:18.465Z,99792.56
2023-04-25T05:46:01.962Z,99781.81
2023-04-25T05:48:44.385Z,99782.66
2023-04-25T05:51:35.148Z,99786.22
2023-04-25T05:54:24.502Z,99796.75
2023-04-25T05:56:54.594Z,99792.38
2023-04-25T05:59:23.885Z,99794.88
2023-04-25T06:01:54.009Z,99796.34
2023-04-25T06:04:30.303Z,99792.41
2023-04-25T06:07:00.136Z,99798.56
2023-04-25T06:09:44.860Z,99797.28
2023-04-25T06:12:13.747Z,99798.13
2023-04-25T06:14:43.088Z,99809.47
2023-04-25T06:17:11.835Z,99807.94
2023-04-25T06:19:41.850Z,99810.44
2023-04-25T06:22:11.888Z,99805.50
2023-04-25T06:24:45.319Z,99813.44
2023-04-25T06:27:16.920Z,99803.06
2023-04-25T06:29:46.968Z,99809.72
2023-04-25T06:32:16.853Z,99814.91
2023-04-25T06:34:46.625Z,99816.28
2023-04-25T06:37:15.534Z,99816.19
2023-04-25T06:39:45.917Z,99819.25
2023-04-25T06:42:17.618Z,99828.00
2023-04-25T06:44:58.256Z,99820.50
2023-04-25T06:47:27.129Z,99828.63
2023-04-25T06:49:55.870Z,99824.44
2023-04-25T06:52:25.078Z,99823.75
2023-04-25T06:54:56.883Z,99831.63
2023-04-25T06:57:44.236Z,99825.81
2023-04-25T07:00:31.803Z,99835.03
2023-04-25T07:03:01.919Z,99819.78
2023-04-25T07:05:31.190Z,99822.03
2023-04-25T07:08:01.239Z,99819.63
2023-04-25T07:10:32.035Z,99830.53
2023-04-25T07:13:01.191Z,99819.44
2023-04-25T07:15:30.282Z,99826.66
2023-04-25T07:18:00.568Z,99826.19
2023-04-25T07:20:29.733Z,99823.72
2023-04-25T07:22:59.134Z,99829.66
2023-04-25T07:25:27.937Z,99825.44
2023-04-25T07:27:59.021Z,99819.94
2023-04-25T07:30:28.962Z,99824.56
2023-04-25T07:32:57.917Z,99836.97
2023-04-25T07:35:27.437Z,99830.25
2023-04-25T07:37:56.205Z,99836.06
2023-04-25T07:40:26.676Z,99835.66
2023-04-25T07:43:01.274Z,99845.56
2023-04-25T07:45:37.256Z,99840.84
2023-04-25T07:48:06.766Z,99851.44
2023-04-25T07:50:38.636Z,99857.91
2023-04-25T07:53:07.494Z,99849.31
2023-04-25T07:55:44.424Z,99850.41
2023-04-25T07:58:23.068Z,99848.59
2023-04-25T08:00:58.561Z,99849.94
2023-04-25T08:03:48.490Z,99845.66
2023-04-25T08:06:24.127Z,99845.53
2023-04-25T08:09:05.082Z,99853.50
2023-04-25T08:11:40.478Z,99853.19
2023-04-25T08:14:13.236Z,99859.91
2023-04-25T08:16:43.232Z,99872.47
2023-04-25T08:19:12.516Z,99864.75
2023-04-25T08:21:41.331Z,99863.84
2023-04-25T08:24:14.530Z,99876.88
2023-04-25T08:26:43.798Z,99875.19
2023-04-25T08:29:18.625Z,99872.69
2023-04-25T08:31:47.714Z,99874.22
2023-04-25T08:34:17.307Z,99864.34
2023-04-25T08:36:50.212Z,99873.34
2023-04-25T08:39:37.367Z,99874.78
2023-04-25T08:42:25.619Z,99880.13
2023-04-25T08:44:56.718Z,99880.28
2023-04-25T08:47:31.214Z,99894.94
2023-04-25T08:50:01.864Z,99884.41
2023-04-25T08:52:34.668Z,99885.28
2023-04-25T08:55:05.588Z,99900.22
2023-04-25T08:57:36.930Z,99896.97
2023-04-25T09:00:09.205Z,99893.88
2023-04-25T09:02:41.285Z,99905.41
2023-04-25T09:05:11.985Z,99903.16
2023-04-25T09:07:40.725Z,99908.63
2023-04-25T09:10:10.805Z,99914.56
2023-04-25T09:12:41.768Z,99922.41
2023-04-25T09:15:20.594Z,99922.97
2023-04-25T09:18:11.025Z,99923.38
2023-04-25T09:21:00.634Z,99931.38
2023-04-25T09:23:34.015Z,99916.50
2023-04-25T09:26:02.690Z,99922.50
2023-04-25T09:28:31.578Z,99914.44
2023-04-25T09:31:04.994Z,99927.81
2023-04-25T09:33:39.613Z,99930.03
2023-04-25T09:36:12.250Z,99930.72
2023-04-25T09:38:50.611Z,99929.00
2023-04-25T09:41:31.360Z,99931.69
2023-04-25T09:44:04.523Z,99929.13
2023-04-25T09:46:39.028Z,99930.59
2023-04-25T09:49:18.069Z,99929.47
2023-04-25T09:52:20.920Z,99930.91
2023-04-25T09:54:59.420Z,99936.50
2023-04-25T09:57:34.613Z,99929.28
2023-04-25T10:00:05.919Z,99945.44
2023-04-25T10:02:47.480Z,99948.59
2023-04-25T10:05:34.285Z,99943.31
2023-04-25T10:08:05.874Z,99868.00
2023-04-25T10:10:37.328Z,99953.00
2023-04-25T10:13:07.856Z,99955.41
2023-04-25T10:15:40.050Z,99947.28
2023-04-25T10:18:10.979Z,99954.38
2023-04-25T10:20:40.327Z,99958.16
2023-04-25T10:23:15.904Z,99963.59
2023-04-25T10:25:45.394Z,99969.06
2023-04-25T10:28:14.085Z,99979.00
2023-04-25T10:31:00.387Z,99984.91
2023-04-25T10:33:36.435Z,99974.09
2023-04-25T10:36:13.316Z,99988.59
2023-04-25T10:38:42.097Z,99971.75
2023-04-25T10:41:13.838Z,99984.47
2023-04-25T10:43:43.649Z,99991.78
2023-04-25T10:46:20.427Z,100001.56
2023-04-25T10:48:52.228Z,99997.28
2023-04-25T10:51:26.363Z,99995.69
2023-04-25T10:54:03.180Z,99985.06
2023-04-25T10:56:33.319Z,99990.84
2023-04-25T10:59:11.153Z,99977.59
2023-04-25T11:01:42.044Z,99985.28
2023-04-25T11:04:24.368Z,99971.28
2023-04-25T11:07:24.564Z,99983.25
2023-04-25T11:09:53.607Z,99998.03
2023-04-25T11:12:22.361Z,99981.41
2023-04-25T11:14:51.061Z,99996.81
2023-04-25T11:17:19.891Z,99986.25
2023-04-25T11:19:51.307Z,99987.06
2023-04-25T11:22:21.163Z,99993.34
2023-04-25T11:24:50.205Z,99984.56
2023-04-25T11:27:18.972Z,99986.25
2023-04-25T11:29:49.047Z,99998.16
2023-04-25T11:32:21.259Z,100002.88
2023-04-25T11:34:51.669Z,100001.69
2023-04-25T11:37:21.024Z,99999.97
2023-04-25T11:39:50.381Z,100002.28
2023-04-25T11:42:21.963Z,100006.25
2023-04-25T11:44:51.035Z,100011.75
2023-04-25T11:47:21.594Z,100014.59
2023-04-25T11:49:55.021Z,100021.47
2023-04-25T11:52:23.762Z,100019.25
2023-04-25T11:54:52.485Z,100018.91
2023-04-25T11:57:22.967Z,100020.59
2023-04-25T11:59:51.730Z,100024.16
2023-04-25T12:02:27.895Z,100032.16
2023-04-25T12:05:15.975Z,100039.03
2023-04-25T12:07:50.709Z,100034.38
2023-04-25T12:10:20.895Z,100037.94
2023-04-25T12:12:50.588Z,100041.88
2023-04-25T12:15:21.108Z,100044.97
2023-04-25T12:17:50.887Z,100046.00
2023-04-25T12:20:24.663Z,100012.66
2023-04-25T12:22:54.328Z,100050.69
2023-04-25T12:25:39.599Z,100043.56
2023-04-25T12:28:21.547Z,100056.66
2023-04-25T12:31:01.866Z,100056.34
2023-04-25T12:33:32.037Z,100059.13
2023-04-25T12:36:06.404Z,100061.88
2023-04-25T12:38:39.407Z,100065.88
2023-04-25T12:41:08.896Z,100068.28
2023-04-25T12:43:37.852Z,100074.63
2023-04-25T12:46:06.716Z,100083.31
2023-04-25T12:48:35.564Z,100080.75
2023-04-25T12:51:05.964Z,100073.88
2023-04-25T12:53:38.490Z,100074.78
2023-04-25T12:56:08.238Z,100060.09
2023-04-25T12:58:37.080Z,100071.44
2023-04-25T13:01:06.231Z,100016.44
2023-04-25T13:03:35.901Z,100072.28
2023-04-25T13:06:07.137Z,100073.03
2023-04-25T13:08:36.042Z,100082.59
2023-04-25T13:11:05.694Z,100083.94
2023-04-25T13:13:35.405Z,100082.34
2023-04-25T13:16:04.394Z,100084.31
2023-04-25T13:18:34.342Z,100082.91
2023-04-25T13:21:03.354Z,100084.31
2023-04-25T13:23:33.679Z,100088.75
2023-04-25T13:26:02.881Z,100084.53
2023-04-25T13:28:31.648Z,100090.72
2023-04-25T13:31:00.685Z,100095.31
2023-04-25T13:33:29.524Z,100088.13
2023-04-25T13:35:58.558Z,100084.63
2023-04-25T13:38:28.248Z,100086.97
2023-04-25T13:40:58.406Z,100093.16
2023-04-25T13:43:27.189Z,100090.13
2023-04-25T13:45:56.006Z,100090.16
2023-04-25T13:48:26.224Z,100100.88
2023-04-25T13:50:54.973Z,100103.97
2023-04-25T13:53:23.721Z,100111.41
2023-04-25T13:55:53.309Z,100123.97
2023-04-25T13:58:23.471Z,100105.41
2023-04-25T14:00:52.233Z,100124.34
2023-04-25T14:03:21.180Z,100114.00
2023-04-25T14:05:50.209Z,100111.50
2023-04-25T14:08:19.088Z,100123.63
2023-04-25T14:10:47.856Z,100120.59
2023-04-25T14:13:16.613Z,100119.75
2023-04-25T14:15:46.896Z,100122.50
2023-04-25T14:18:15.806Z,100131.16
2023-04-25T14:20:44.849Z,100139.44
2023-04-25T14:23:15.643Z,100135.41
2023-04-25T14:25:49.381Z,100141.09
2023-04-25T14:28:21.315Z,100145.00
2023-04-25T14:30:53.876Z,100144.78
2023-04-25T14:33:22.662Z,100152.78
2023-04-25T14:35:54.201Z,100150.13
2023-04-25T14:38:24.420Z,100157.44
2023-04-25T14:40:54.977Z,100152.03
2023-04-25T14:43:26.567Z,100145.31
2023-04-25T14:45:58.417Z,100156.56
2023-04-25T14:48:27.577Z,100165.84
2023-04-25T14:50:57.429Z,100168.81
2023-04-25T14:53:26.546Z,100176.13
2023-04-25T14:55:55.494Z,100167.03
2023-04-25T14:58:24.451Z,100174.63
2023-04-25T15:00:53.386Z,100173.25
2023-04-25T15:03:24.156Z,100177.97
2023-04-25T15:05:53.035Z,100191.41
2023-04-25T15:08:21.782Z,100178.56
2023-04-25T15:10:51.548Z,100184.13
2023-04-25T15:13:21.298Z,100174.09
2023-04-25T15:15:52.340Z,100186.69
2023-04-25T15:18:23.954Z,100182.66
2023-04-25T15:20:53.306Z,100184.88
2023-04-25T15:23:23.044Z,100190.59
2023-04-25T15:25:53.896Z,100200.84
2023-04-25T15:28:23.022Z,100203.72
2023-04-25T15:30:51.877Z,100198.66
2023-04-25T15:33:22.058Z,100198.59
2023-04-25T15:35:50.876Z,100201.03
2023-04-25T15:38:19.710Z,100202.03
2023-04-25T15:40:48.477Z,100204.38
2023-04-25T15:43:17.339Z,100203.34
2023-04-25T15:45:47.054Z,100210.00
2023-04-25T15:48:15.888Z,100204.50
2023-04-25T15:50:46.410Z,100197.00
2023-04-25T15:53:15.255Z,100204.28
2023-04-25T15:55:44.628Z,100207.22
2023-04-25T15:58:13.401Z,100206.81
2023-04-25T16:00:42.733Z,100206.16
2023-04-25T16:03:12.122Z,100199.84
2023-04-25T16:05:41.127Z,100209.88
2023-04-25T16:08:11.184Z,100207.94
2023-04-25T16:10:40.125Z,100210.22
2023-04-25T16:13:09.019Z,100212.53
2023-04-25T16:15:38.223Z,100214.91
2023-04-25T16:18:08.291Z,100217.66
2023-04-25T16:20:37.160Z,100202.34
2023-04-25T16:23:05.883Z,100212.06
2023-04-25T16:25:36.050Z,100221.84
2023-04-25T16:28:04.806Z,100215.09
2023-04-25T16:30:33.591Z,100219.88
2023-04-25T16:33:02.500Z,100215.88
2023-04-25T16:38:15.138Z,100221.25
2023-04-25T16:40:45.342Z,100217.28
2023-04-25T16:43:14.132Z,100231.84
2023-04-25T16:45:43.015Z,100225.50
2023-04-25T16:48:11.898Z,100226.19
2023-04-25T16:50:40.929Z,100225.16
2023-04-25T16:53:09.697Z,100231.47
2023-04-25T16:55:38.483Z,100238.03
2023-04-25T16:58:11.256Z,100231.63
2023-04-25T17:00:40.506Z,100229.94
2023-04-25T17:03:09.425Z,100227.69
2023-04-25T17:05:38.744Z,100239.91
2023-04-25T17:08:08.336Z,100238.78
2023-04-25T17:10:37.163Z,100236.47
2023-04-25T17:13:07.330Z,100238.78
2023-04-25T17:15:36.524Z,100237.41
2023-04-25T17:18:05.541Z,100242.16
2023-04-25T17:20:34.432Z,100243.13
2023-04-25T17:23:03.328Z,100238.78
2023-04-25T17:25:32.997Z,100249.38
2023-04-25T17:28:01.826Z,100249.38
2023-04-25T17:30:32.150Z,100253.81
2023-04-25T17:33:01.288Z,100250.41
2023-04-25T17:35:31.559Z,100244.28
2023-04-25T17:38:00.439Z,100246.97
2023-04-25T17:40:29.178Z,100251.38
2023-04-25T17:42:57.965Z,100245.22
2023-04-25T17:45:27.182Z,100255.78
2023-04-25T17:47:57.751Z,100251.59
2023-04-25T17:50:26.931Z,100251.94
2023-04-25T17:52:55.822Z,100261.81
2023-04-25T17:55:25.075Z,100251.44
2023-04-25T17:57:53.825Z,100260.31
2023-04-25T18:00:22.890Z,100262.84
2023-04-25T18:02:52.233Z,100258.41
2023-04-25T18:05:22.712Z,100258.53
2023-04-25T18:07:51.516Z,100263.00
2023-04-25T18:10:20.368Z,100262.00
2023-04-25T18:12:50.493Z,100259.53
2023-04-25T18:15:20.264Z,100266.56
2023-04-25T18:20:33.847Z,100273.75
2023-04-25T18:23:02.772Z,100269.44
2023-04-25T18:25:31.679Z,100273.81
2023-04-25T18:28:00.958Z,100273.13
2023-04-25T18:30:30.330Z,100288.06
2023-04-25T18:32:59.175Z,100288.16
2023-04-25T18:35:28.668Z,100285.63
2023-04-25T18:37:59.171Z,100291.97
2023-04-25T18:40:28.007Z,100298.38
2023-04-25T18:42:56.762Z,100303.88
2023-04-25T18:45:25.540Z,100299.69
2023-04-25T18:47:54.798Z,100310.22
2023-04-25T18:50:26.395Z,100305.13
2023-04-25T18:52:55.248Z,100313.09
2023-04-25T18:55:25.749Z,100322.84
2023-04-25T18:57:54.649Z,100313.03
2023-04-25T19:00:24.848Z,100314.81
2023-04-25T19:02:56.031Z,100317.34
2023-04-25T19:05:24.980Z,100314.78
2023-04-25T19:07:53.840Z,100324.44
2023-04-25T19:10:23.998Z,100324.34
2023-04-25T19:12:52.761Z,100325.22
2023-04-25T19:15:21.543Z,100331.41
2023-04-25T19:17:50.329Z,100327.13
2023-04-25T19:20:20.783Z,100333.44
2023-04-25T19:22:49.632Z,100337.22
2023-04-25T19:25:18.445Z,100339.28
2023-04-25T19:27:48.548Z,100336.88
2023-04-25T19:30:17.464Z,100331.78
2023-04-25T19:32:46.385Z,100331.06
2023-04-25T19:35:15.748Z,100333.84
2023-04-25T19:37:46.798Z,100269.53
2023-04-25T19:40:16.520Z,100332.38
2023-04-25T19:42:47.293Z,100331.50
2023-04-25T19:45:16.047Z,100331.50
2023-04-25T19:47:45.027Z,100324.53
2023-04-25T19:50:13.946Z,100325.56
2023-04-25T19:52:42.940Z,100328.28
2023-04-25T19:55:12.138Z,100323.00
2023-04-25T19:57:40.983Z,100322.06
2023-04-25T20:00:14.437Z,100323.91
2023-04-25T20:02:45.349Z,100323.91
2023-04-25T20:05:15.481Z,100329.22
2023-04-25T20:07:44.413Z,100322.22
2023-04-25T20:10:14.172Z,100322.22
2023-04-25T20:12:43.025Z,100330.16
2023-04-25T20:15:13.762Z,100337.19
2023-04-25T20:17:42.827Z,100334.66
2023-04-25T20:20:12.838Z,100329.41
2023-04-25T20:22:41.562Z,100326.00
2023-04-25T20:25:12.270Z,100339.25
2023-04-25T20:27:41.108Z,100338.44
2023-04-25T20:30:12.564Z,100335.03
2023-04-25T20:32:41.706Z,100340.34
2023-04-25T20:35:11.106Z,100336.88
2023-04-25T20:37:39.980Z,100341.25
2023-04-25T20:40:10.132Z,100337.75
2023-04-25T20:42:39.060Z,100341.19
2023-04-25T20:45:13.259Z,100338.63
2023-04-25T20:47:44.564Z,100342.19
2023-04-25T20:50:13.519Z,100336.09
2023-04-25T20:52:43.248Z,100337.91
2023-04-25T20:55:13.545Z,100337.91
2023-04-25T20:57:42.366Z,100342.34
2023-04-25T21:00:17.865Z,100345.91
2023-04-25T21:02:48.430Z,100343.28
2023-04-25T21:05:17.299Z,100349.44
2023-04-25T21:07:46.801Z,100345.91
2023-04-25T21:10:15.944Z,100349.41
2023-04-25T21:12:47.906Z,100354.66
2023-04-25T21:15:20.186Z,100353.78
2023-04-25T21:17:51.080Z,100352.06
2023-04-25T21:20:21.587Z,100345.09
2023-04-25T21:22:54.144Z,100352.97
2023-04-25T21:25:29.317Z,100356.44
2023-04-25T21:27:58.954Z,100366.94
2023-04-25T21:30:28.273Z,100356.44
2023-04-25T21:32:58.526Z,100359.94
2023-04-25T21:35:27.437Z,100359.06
2023-04-25T21:37:56.306Z,100359.06
2023-04-25T21:40:25.177Z,100366.94
2023-04-25T21:42:53.926Z,100363.47
2023-04-25T21:45:22.859Z,100363.44
2023-04-25T21:47:51.840Z,100368.66
2023-04-25T21:50:22.358Z,100368.59
2023-04-25T21:52:54.073Z,100358.03
2023-04-25T21:55:23.061Z,100357.16
2023-04-25T21:57:51.788Z,100365.03
2023-04-25T22:00:27.519Z,100372.94
2023-04-25T22:02:56.657Z,100366.88
2023-04-25T22:05:28.156Z,100370.34
2023-04-25T22:07:58.157Z,100371.16
2023-04-25T22:10:26.950Z,100375.53
2023-04-25T22:12:56.056Z,100379.03
2023-04-25T22:15:24.792Z,100386.03
2023-04-25T22:17:55.247Z,100381.66
2023-04-25T22:20:26.391Z,100381.66
2023-04-25T22:22:57.281Z,100386.00
2023-04-25T22:25:27.808Z,100387.78
2023-04-25T22:27:58.929Z,100390.41
2023-04-25T22:30:30.695Z,100395.66
2023-04-25T22:33:00.018Z,100398.28
2023-04-25T22:35:28.751Z,100403.56
2023-04-25T22:37:58.916Z,100398.34
2023-04-25T22:40:27.772Z,100409.72
2023-04-25T22:42:56.499Z,100404.50
2023-04-25T22:45:25.274Z,100409.78
2023-04-25T22:47:54.344Z,100415.88
2023-04-25T22:50:23.231Z,100409.78
2023-04-25T22:52:52.003Z,100413.28
2023-04-25T22:55:22.648Z,100409.78
2023-04-25T22:57:53.972Z,100409.75
2023-04-25T23:00:26.224Z,100412.34
2023-04-25T23:02:55.094Z,100415.84
2023-04-25T23:05:24.652Z,100416.72
2023-04-25T23:07:53.351Z,100420.22
2023-04-25T23:10:23.472Z,100420.28
2023-04-25T23:12:52.339Z,100422.03
2023-04-25T23:15:21.025Z,100423.78
2023-04-25T23:17:49.732Z,100427.28
2023-04-25T23:20:18.690Z,100430.81
2023-04-25T23:26:00.679Z,100436.06
2023-04-25T23:28:35.401Z,100436.94
2023-04-25T23:31:11.829Z,100438.69
2023-04-25T23:33:41.917Z,100436.94
2023-04-25T23:36:30.691Z,100436.06
2023-04-25T23:40:21.434Z,100450.06
2023-04-25T23:42:52.009Z,100450.94
2023-04-25T23:45:26.971Z,100449.16
2023-04-25T23:47:55.738Z,100460.53
2023-04-25T23:50:59.722Z,100450.91
2023-04-25T23:53:53.882Z,100457.91
2023-04-25T23:56:22.874Z,100457.91
2023-04-25T23:58:52.999Z,100458.75
